Time;durP1;ratioP1;P1;durP2;ratioP2;P2;SDS_P1;SDS_P2;PMS_P1;PMS_P2;Temp;Humidity;BMP_temperature;BMP_pressure;BME280_temperature;BME280_humidity;BME280_pressure;Samples;Min_cycle;Max_cycle;Signal;HPM_P1;HPM_P2
2021/01/29 00:00:29;;;;;;;5.18;3.17;;;4.70;99.90;;;;;;5010538;28;20511;-44
2021/01/29 00:02:56;;;;;;;4.05;3.05;;;4.60;99.90;;;;;;4973238;28;20050;-44
2021/01/29 00:05:28;;;;;;;3.85;2.40;;;4.60;99.90;;;;;;4992149;28;20049;-44
2021/01/29 00:07:54;;;;;;;5.05;3.65;;;4.60;99.90;;;;;;4992116;28;20514;-45
2021/01/29 00:10:20;;;;;;;5.88;2.85;;;4.70;99.90;;;;;;4991961;28;20026;-44
2021/01/29 00:12:46;;;;;;;2.05;1.73;;;4.60;99.90;;;;;;4972205;28;20142;-45
2021/01/29 00:15:17;;;;;;;5.13;2.88;;;4.60;99.90;;;;;;4972876;28;20654;-45
2021/01/29 00:17:43;;;;;;;5.30;3.35;;;4.70;99.90;;;;;;4956101;28;20035;-45
2021/01/29 00:20:13;;;;;;;5.75;3.38;;;4.70;99.90;;;;;;4940545;28;20180;-44
2021/01/29 00:22:39;;;;;;;2.95;2.22;;;4.70;99.90;;;;;;4956424;28;20055;-45
2021/01/29 00:25:08;;;;;;;6.47;3.25;;;4.70;99.90;;;;;;4972500;28;20024;-45
2021/01/29 00:27:34;;;;;;;5.60;2.33;;;4.70;99.90;;;;;;4905442;28;20039;-45
2021/01/29 00:29:59;;;;;;;4.10;2.72;;;4.70;99.90;;;;;;4937218;29;20035;-44
2021/01/29 00:32:25;;;;;;;3.67;2.40;;;4.70;99.90;;;;;;4953282;28;20039;-45
2021/01/29 00:34:51;;;;;;;5.90;3.25;;;4.70;99.90;;;;;;4989764;28;20033;-44
2021/01/29 00:37:16;;;;;;;5.13;2.72;;;4.70;99.90;;;;;;5011504;28;20045;-46
2021/01/29 00:39:42;;;;;;;2.90;2.30;;;4.70;99.90;;;;;;4962697;28;20044;-45
2021/01/29 00:42:08;;;;;;;4.03;2.75;;;4.70;99.90;;;;;;5011002;28;20073;-46
2021/01/29 00:44:34;;;;;;;6.75;2.67;;;4.70;99.90;;;;;;4996239;28;20038;-45
2021/01/29 00:46:59;;;;;;;4.95;2.70;;;4.80;99.90;;;;;;5014622;28;20040;-45
2021/01/29 00:49:25;;;;;;;4.13;2.53;;;4.70;99.90;;;;;;4982474;28;20034;-45
2021/01/29 00:51:51;;;;;;;3.88;2.78;;;4.80;99.90;;;;;;5015110;28;20089;-46
2021/01/29 00:54:17;;;;;;;4.22;2.63;;;4.80;99.90;;;;;;5014925;28;20144;-46
2021/01/29 00:56:42;;;;;;;4.13;2.50;;;4.80;99.90;;;;;;4982402;28;20164;-45
2021/01/29 00:59:09;;;;;;;3.63;2.17;;;4.80;99.90;;;;;;5031109;28;20034;-45
2021/01/29 01:01:35;;;;;;;4.82;3.03;;;4.90;99.90;;;;;;5036580;28;20075;-45
2021/01/29 01:04:00;;;;;;;3.88;2.35;;;4.80;99.90;;;;;;5036640;28;20033;-46
2021/01/29 01:06:26;;;;;;;4.82;3.40;;;4.90;99.90;;;;;;5036373;28;20432;-46
2021/01/29 01:08:52;;;;;;;5.43;3.38;;;5.00;99.90;;;;;;5036577;28;20036;-46
2021/01/29 01:11:18;;;;;;;3.53;2.47;;;4.90;99.90;;;;;;5017960;28;20040;-46
2021/01/29 01:13:43;;;;;;;4.35;2.75;;;4.90;99.90;;;;;;5036436;28;20057;-45
2021/01/29 01:16:09;;;;;;;4.20;2.50;;;4.90;99.90;;;;;;5036398;28;20057;-44
2021/01/29 01:18:35;;;;;;;3.83;2.28;;;5.00;99.90;;;;;;5036288;28;20380;-46
2021/01/29 01:21:00;;;;;;;4.18;2.03;;;5.00;99.90;;;;;;5036522;28;20032;-46
2021/01/29 01:23:26;;;;;;;3.95;2.40;;;5.00;99.90;;;;;;5036283;28;20526;-46
2021/01/29 01:25:53;;;;;;;10.15;3.58;;;5.00;99.90;;;;;;5036246;28;20053;-46
2021/01/29 01:28:19;;;;;;;3.65;2.67;;;5.10;99.90;;;;;;5036000;28;20065;-45
2021/01/29 01:30:45;;;;;;;5.75;3.35;;;5.10;99.90;;;;;;5035980;28;20501;-45
2021/01/29 01:33:11;;;;;;;2.63;1.90;;;5.20;99.90;;;;;;5036102;28;20025;-44
2021/01/29 01:35:37;;;;;;;4.72;2.60;;;5.10;99.90;;;;;;5035958;28;20030;-45
2021/01/29 01:38:04;;;;;;;4.47;2.78;;;5.20;99.70;;;;;;5035869;28;20026;-44
2021/01/29 01:40:37;;;;;;;3.10;2.53;;;5.30;99.60;;;;;;5035994;28;20029;-44
2021/01/29 01:43:05;;;;;;;4.75;2.65;;;5.40;99.30;;;;;;5035694;28;20124;-46
2021/01/29 01:45:31;;;;;;;6.03;3.20;;;5.30;99.30;;;;;;5035716;28;20113;-46
2021/01/29 01:48:04;;;;;;;6.00;2.92;;;5.40;99.20;;;;;;5035805;28;20049;-45
2021/01/29 01:50:38;;;;;;;5.20;2.90;;;5.40;98.80;;;;;;5035626;28;20385;-45
2021/01/29 01:53:09;;;;;;;5.07;3.13;;;5.60;98.70;;;;;;5035550;28;20018;-45
2021/01/29 01:55:38;;;;;;;4.70;3.17;;;5.50;98.70;;;;;;5035263;28;20025;-44
2021/01/29 01:58:07;;;;;;;5.35;3.45;;;5.50;98.70;;;;;;5035521;28;20074;-46
2021/01/29 02:00:34;;;;;;;6.03;4.03;;;5.50;98.60;;;;;;5035824;28;20017;-46
2021/01/29 02:03:24;;;;;;;4.15;2.63;;;5.60;98.40;;;;;;5035568;28;20155;-45
2021/01/29 02:05:49;;;;;;;5.85;3.25;;;5.70;98.20;;;;;;5001017;28;20042;-45
2021/01/29 02:08:17;;;;;;;4.85;3.25;;;5.80;98.10;;;;;;4968326;28;20384;-45
2021/01/29 02:10:43;;;;;;;4.97;3.10;;;5.80;98.10;;;;;;5035586;28;20369;-46
2021/01/29 02:13:09;;;;;;;5.65;3.72;;;5.90;97.80;;;;;;5035080;28;20050;-45
2021/01/29 02:15:46;;;;;;;6.65;3.40;;;5.90;97.60;;;;;;5035501;28;20037;-46
2021/01/29 02:18:32;;;;;;;5.05;3.28;;;5.80;97.50;;;;;;5035209;28;20068;-45
2021/01/29 02:21:14;;;;;;;5.28;3.20;;;5.80;97.60;;;;;;5035250;28;20544;-45
2021/01/29 02:24:32;;;;;;;4.88;3.42;;;5.70;97.60;;;;;;4984483;28;20451;-45
2021/01/29 02:27:26;;;;;;;4.63;3.15;;;5.70;97.60;;;;;;4984424;28;20037;-46
2021/01/29 02:30:14;;;;;;;5.55;3.45;;;5.90;97.40;;;;;;5035303;28;20112;-45
2021/01/29 02:33:00;;;;;;;4.70;3.45;;;6.10;96.60;;;;;;5035351;28;20022;-44
2021/01/29 02:35:53;;;;;;;6.07;4.28;;;6.10;96.30;;;;;;5035625;28;20072;-46
2021/01/29 02:38:34;;;;;;;4.80;3.00;;;6.40;96.00;;;;;;5035138;28;20032;-46
2021/01/29 02:41:36;;;;;;;5.95;3.88;;;6.30;95.90;;;;;;5035218;28;20468;-45
2021/01/29 02:44:20;;;;;;;6.30;3.63;;;6.60;95.50;;;;;;4984286;28;20538;-46
2021/01/29 02:46:56;;;;;;;5.32;3.67;;;6.70;94.60;;;;;;5034665;28;20108;-45
2021/01/29 02:49:37;;;;;;;4.07;2.97;;;6.70;94.60;;;;;;5034553;28;20021;-46
2021/01/29 02:52:24;;;;;;;4.10;2.85;;;6.70;94.70;;;;;;4984272;28;20053;-46
2021/01/29 02:55:07;;;;;;;4.15;2.60;;;6.30;95.60;;;;;;5034699;28;20057;-45
2021/01/29 02:57:54;;;;;;;5.50;3.92;;;6.20;96.20;;;;;;5034635;28;20025;-46
2021/01/29 03:00:50;;;;;;;16.45;11.18;;;6.30;96.10;;;;;;5034842;28;20100;-45
2021/01/29 03:03:26;;;;;;;5.75;4.10;;;6.30;95.70;;;;;;5032727;28;20045;-45
2021/01/29 03:05:59;;;;;;;6.05;4.10;;;6.50;95.50;;;;;;5034666;28;20354;-46
2021/01/29 03:08:36;;;;;;;6.68;3.92;;;6.50;94.90;;;;;;5033878;28;20037;-46
2021/01/29 03:11:09;;;;;;;23.40;16.25;;;6.60;95.10;;;;;;5033947;28;20033;-46
2021/01/29 03:13:53;;;;;;;11.63;7.88;;;6.60;95.20;;;;;;5033994;28;20516;-46
2021/01/29 03:16:27;;;;;;;54.58;41.67;;;6.80;94.90;;;;;;5034322;28;20025;-44
2021/01/29 03:18:58;;;;;;;19.85;17.10;;;6.60;95.20;;;;;;5034127;28;20029;-45
2021/01/29 03:21:34;;;;;;;7.63;5.05;;;6.50;95.80;;;;;;5034034;28;20034;-44
2021/01/29 03:24:10;;;;;;;6.22;4.40;;;6.40;95.80;;;;;;5034103;28;20469;-44
2021/01/29 03:26:46;;;;;;;5.75;4.32;;;6.40;95.90;;;;;;4984730;28;20087;-45
2021/01/29 03:29:17;;;;;;;7.28;5.20;;;6.50;95.70;;;;;;5033863;28;20025;-46
2021/01/29 03:31:46;;;;;;;7.75;4.93;;;6.50;96.20;;;;;;5033961;28;20029;-45
2021/01/29 03:34:21;;;;;;;6.70;5.00;;;6.50;95.60;;;;;;5016370;28;20116;-46
2021/01/29 03:37:02;;;;;;;12.60;7.32;;;6.70;95.40;;;;;;5033818;28;20021;-46
2021/01/29 03:39:35;;;;;;;11.70;6.95;;;6.60;95.80;;;;;;5033885;28;20028;-45
2021/01/29 03:42:17;;;;;;;11.23;8.52;;;6.80;95.50;;;;;;5033677;28;20033;-45
2021/01/29 03:44:51;;;;;;;9.93;7.95;;;6.90;95.00;;;;;;5033820;28;20440;-45
2021/01/29 03:47:57;;;;;;;11.07;8.02;;;7.00;94.50;;;;;;5033606;28;20025;-46
2021/01/29 03:50:31;;;;;;;6.68;4.72;;;7.10;94.40;;;;;;4934251;29;20044;-45
2021/01/29 03:53:27;;;;;;;6.18;4.60;;;7.10;94.30;;;;;;4934193;29;20027;-46
2021/01/29 03:56:18;;;;;;;7.13;5.10;;;7.20;94.30;;;;;;4934279;29;20047;-45
2021/01/29 03:59:07;;;;;;;33.90;18.80;;;7.40;94.20;;;;;;4934239;29;20035;-44
2021/01/29 04:01:41;;;;;;;15.27;10.90;;;7.60;93.70;;;;;;4934476;29;20047;-45
2021/01/29 04:04:32;;;;;;;15.05;9.75;;;7.60;93.50;;;;;;4934071;29;20048;-44
2021/01/29 04:07:20;;;;;;;13.20;9.23;;;7.50;93.70;;;;;;4877516;29;20105;-45
2021/01/29 04:10:17;;;;;;;16.33;11.27;;;7.50;93.40;;;;;;4877918;29;20094;-45
2021/01/29 04:13:19;;;;;;;21.83;15.35;;;7.60;93.40;;;;;;4887818;29;20048;-45
2021/01/29 04:15:50;;;;;;;39.67;23.48;;;7.50;93.70;;;;;;4896605;29;20032;-45
2021/01/29 04:18:36;;;;;;;31.45;22.10;;;7.40;93.70;;;;;;4897603;29;20041;-45
2021/01/29 04:21:10;;;;;;;30.60;23.25;;;7.30;94.10;;;;;;4900381;29;20092;-45
2021/01/29 04:23:56;;;;;;;33.40;21.88;;;7.40;93.80;;;;;;4899893;29;20044;-46
2021/01/29 04:26:27;;;;;;;31.90;21.63;;;7.40;93.90;;;;;;4909209;29;20205;-46
2021/01/29 04:29:01;;;;;;;33.92;23.27;;;7.50;93.80;;;;;;4937809;29;20047;-45
2021/01/29 04:31:29;;;;;;;36.83;24.08;;;7.50;93.70;;;;;;4937677;29;20036;-46
2021/01/29 04:34:05;;;;;;;39.97;26.08;;;7.60;93.50;;;;;;4937715;29;20550;-45
2021/01/29 04:36:33;;;;;;;39.08;25.35;;;7.60;93.60;;;;;;4953152;29;20046;-46
2021/01/29 04:39:10;;;;;;;37.47;24.67;;;7.70;93.30;;;;;;4956881;29;20027;-47
2021/01/29 04:42:09;;;;;;;42.30;26.83;;;7.80;93.00;;;;;;4956695;29;20050;-45
2021/01/29 04:44:55;;;;;;;37.33;24.27;;;7.80;92.90;;;;;;5017726;28;20037;-46
2021/01/29 04:47:24;;;;;;;43.53;25.58;;;7.80;92.80;;;;;;5036937;28;20061;-45
2021/01/29 04:50:14;;;;;;;41.60;26.33;;;7.70;92.80;;;;;;5037238;28;20056;-46
2021/01/29 04:53:17;;;;;;;36.22;23.75;;;7.60;92.80;;;;;;5018258;28;20465;-45
2021/01/29 04:55:51;;;;;;;75.85;46.15;;;7.60;93.10;;;;;;5036712;28;20033;-45
2021/01/29 04:58:28;;;;;;;67.22;46.65;;;7.40;93.50;;;;;;5036692;28;20029;-45
2021/01/29 05:00:58;;;;;;;66.45;46.30;;;7.40;93.30;;;;;;5036923;28;20052;-46
2021/01/29 05:03:48;;;;;;;48.15;35.65;;;7.30;93.60;;;;;;5018756;28;20052;-45
2021/01/29 05:06:47;;;;;;;33.30;25.02;;;7.10;93.90;;;;;;5036459;28;20025;-45
2021/01/29 05:09:49;;;;;;;28.77;20.98;;;7.10;94.00;;;;;;5036869;28;20033;-46
2021/01/29 05:12:30;;;;;;;35.75;26.08;;;7.00;94.30;;;;;;5036432;28;20081;-45
2021/01/29 05:15:15;;;;;;;39.83;28.38;;;7.20;93.80;;;;;;5036266;28;20033;-45
2021/01/29 05:18:03;;;;;;;36.03;24.92;;;7.10;93.90;;;;;;5036151;28;20025;-46
2021/01/29 05:21:05;;;;;;;40.55;29.17;;;7.00;94.30;;;;;;5036322;28;20028;-45
2021/01/29 05:23:37;;;;;;;32.03;22.10;;;7.00;94.30;;;;;;5036149;28;20095;-46
2021/01/29 05:26:15;;;;;;;28.92;21.55;;;7.00;94.20;;;;;;5036203;28;20097;-45
2021/01/29 05:29:09;;;;;;;23.13;17.88;;;6.90;94.50;;;;;;5001551;28;20492;-44
2021/01/29 05:31:50;;;;;;;25.23;17.65;;;7.00;94.10;;;;;;4936304;29;20054;-45
2021/01/29 05:34:40;;;;;;;25.85;17.80;;;7.00;93.80;;;;;;4936929;29;20134;-46
2021/01/29 05:37:45;;;;;;;31.00;19.95;;;7.10;93.50;;;;;;4936599;29;20412;-45
2021/01/29 05:40:22;;;;;;;40.08;24.13;;;7.10;93.20;;;;;;4936627;29;20042;-45
2021/01/29 05:43:12;;;;;;;34.70;23.10;;;6.40;94.70;;;;;;4936657;29;20040;-45
2021/01/29 05:45:58;;;;;;;34.28;22.98;;;6.00;95.60;;;;;;4920657;29;20175;-46
2021/01/29 05:48:43;;;;;;;33.28;22.00;;;5.90;95.90;;;;;;4936410;29;20032;-45
2021/01/29 05:51:17;;;;;;;34.10;22.83;;;5.90;96.00;;;;;;4936761;29;20044;-45
2021/01/29 05:53:51;;;;;;;29.65;20.20;;;5.80;96.50;;;;;;4936720;29;20035;-45
2021/01/29 05:56:54;;;;;;;30.92;21.33;;;5.80;96.50;;;;;;4920660;29;20134;-45
2021/01/29 05:59:53;;;;;;;30.52;20.25;;;5.70;96.70;;;;;;4879936;29;20045;-45
2021/01/29 06:02:49;;;;;;;30.80;20.60;;;5.80;96.50;;;;;;4879981;29;20048;-44
2021/01/29 06:05:25;;;;;;;29.95;20.98;;;5.80;96.70;;;;;;4880106;29;20060;-45
2021/01/29 06:08:01;;;;;;;36.38;22.52;;;5.90;96.30;;;;;;4887350;29;20037;-46
2021/01/29 06:11:11;;;;;;;33.85;23.00;;;6.10;95.60;;;;;;4917445;29;20491;-45
2021/01/29 06:14:15;;;;;;;31.95;21.08;;;6.10;95.20;;;;;;4921246;29;20095;-45
2021/01/29 06:17:10;;;;;;;31.83;22.60;;;5.70;96.10;;;;;;4889150;29;20036;-45
2021/01/29 06:20:31;;;;;;;29.80;20.60;;;5.90;96.00;;;;;;4936131;29;20028;-45
2021/01/29 06:23:14;;;;;;;25.35;18.85;;;6.10;95.40;;;;;;4898078;29;20040;-45
2021/01/29 06:25:45;;;;;;;;;;;5.80;96.00;;;;;;4898810;29;20041;-45
2021/01/29 06:28:55;;;;;;;29.63;20.65;;;5.50;96.70;;;;;;4898243;29;20013;-45
2021/01/29 06:31:42;;;;;;;35.47;23.85;;;5.30;97.30;;;;;;4898133;29;20044;-45
2021/01/29 06:34:25;;;;;;;310.45;223.77;;;5.30;97.30;;;;;;4897857;29;20527;-46
2021/01/29 06:37:02;;;;;;;233.35;154.57;;;;;;;;;;4927622;29;20516;-45
2021/01/29 06:39:36;;;;;;;123.47;68.53;;;6.10;96.70;;;;;;4935927;29;20098;-45
2021/01/29 06:42:15;;;;;;;154.02;83.10;;;6.50;95.30;;;;;;4919126;29;20057;-45
2021/01/29 06:44:47;;;;;;;140.48;72.93;;;6.90;94.80;;;;;;4935717;29;20128;-46
2021/01/29 06:47:33;;;;;;;93.75;54.58;;;7.30;93.60;;;;;;4935781;29;20066;-46
2021/01/29 06:50:23;;;;;;;214.65;130.60;;;7.70;93.00;;;;;;4949553;28;20026;-46
2021/01/29 06:53:02;;;;;;;206.40;105.72;;;7.90;92.20;;;;;;4993394;28;20166;-45
2021/01/29 06:55:58;;;;;;;589.95;319.90;;;7.80;91.60;;;;;;4993088;28;20035;-45
2021/01/29 06:58:41;;;;;;;329.25;149.05;;;7.60;91.80;;;;;;4979755;28;20532;-46
2021/01/29 07:01:33;;;;;;;133.77;72.38;;;7.70;91.10;;;;;;5016067;28;20064;-46
2021/01/29 07:04:30;;;;;;;94.65;57.42;;;7.20;92.40;;;;;;4970460;28;20076;-46
2021/01/29 07:07:08;;;;;;;66.05;45.55;;;7.50;92.20;;;;;;5034740;28;20033;-45
2021/01/29 07:09:36;;;;;;;93.15;50.25;;;7.70;91.90;;;;;;5034547;28;20025;-46
2021/01/29 07:12:09;;;;;;;136.07;51.90;;;7.80;91.70;;;;;;5033712;28;20179;-45
2021/01/29 07:14:54;;;;;;;81.75;37.10;;;8.00;91.60;;;;;;5022199;28;20037;-45
2021/01/29 07:17:29;;;;;;;114.57;42.92;;;8.10;91.30;;;;;;5037970;28;20037;-46
2021/01/29 07:20:25;;;;;;;101.47;40.28;;;8.20;91.00;;;;;;5029293;28;20540;-45
2021/01/29 07:23:03;;;;;;;71.70;35.10;;;8.20;90.80;;;;;;5054038;28;20056;-43
2021/01/29 07:25:41;;;;;;;81.53;38.20;;;8.30;90.60;;;;;;5013894;28;20087;-43
2021/01/29 07:28:20;;;;;;;69.47;41.65;;;8.30;90.70;;;;;;5033858;28;20455;-43
2021/01/29 07:31:03;;;;;;;82.25;49.95;;;8.40;90.80;;;;;;5003597;28;20036;-44
2021/01/29 07:33:47;;;;;;;;;;;8.30;90.70;;;;;;5051129;28;20102;-44
2021/01/29 07:36:42;;;;;;;221.43;120.85;;;8.40;91.00;;;;;;5016879;28;19928;-44
2021/01/29 07:39:23;;;;;;;50.03;32.35;;;8.00;91.20;;;;;;5018146;28;20041;-44
2021/01/29 07:41:49;;;;;;;36.53;24.25;;;7.70;92.40;;;;;;5051937;28;20079;-43
2021/01/29 07:44:34;;;;;;;28.80;20.95;;;7.20;93.20;;;;;;5015579;28;20036;-44
2021/01/29 07:47:20;;;;;;;31.48;24.63;;;7.20;93.80;;;;;;5050989;28;20540;-44
2021/01/29 07:50:00;;;;;;;34.45;25.33;;;7.40;93.70;;;;;;4970946;28;20035;-44
2021/01/29 07:52:50;;;;;;;21.70;17.55;;;7.50;93.40;;;;;;4969891;28;20264;-44
2021/01/29 07:55:23;;;;;;;19.45;13.73;;;7.30;93.60;;;;;;4971405;28;20039;-44
2021/01/29 07:57:58;;;;;;;20.48;14.73;;;7.20;94.30;;;;;;4956904;28;20778;-44
2021/01/29 08:00:46;;;;;;;22.60;16.02;;;7.40;94.10;;;;;;4956806;28;20498;-44
2021/01/29 08:03:18;;;;;;;47.10;35.95;;;7.50;94.10;;;;;;4972754;28;20513;-44
2021/01/29 08:06:07;;;;;;;49.58;32.40;;;8.20;94.60;;;;;;4972671;28;20031;-43
2021/01/29 08:08:45;;;;;;;38.33;25.60;;;9.60;91.70;;;;;;4953209;29;20138;-44
2021/01/29 08:11:14;;;;;;;95.22;59.30;;;9.60;90.50;;;;;;4953350;29;20044;-44
2021/01/29 08:14:10;;;;;;;58.63;34.05;;;9.50;90.50;;;;;;4933941;29;20145;-44
2021/01/29 08:17:11;;;;;;;19.15;13.18;;;9.70;90.30;;;;;;4934224;29;20179;-44
2021/01/29 08:20:04;;;;;;;18.30;13.52;;;8.90;91.80;;;;;;4858928;29;20466;-44
2021/01/29 08:22:48;;;;;;;16.88;11.20;;;8.70;92.30;;;;;;4828035;29;20037;-43
2021/01/29 08:25:23;;;;;;;15.30;11.07;;;8.20;93.00;;;;;;4859135;29;20165;-43
2021/01/29 08:28:16;;;;;;;18.98;12.18;;;7.80;94.70;;;;;;4861069;29;20433;-43
2021/01/29 08:31:16;;;;;;;15.88;11.40;;;7.60;95.30;;;;;;4896151;29;20581;-43
2021/01/29 08:34:05;;;;;;;16.65;12.50;;;7.50;96.20;;;;;;4896709;29;20040;-44
2021/01/29 08:36:54;;;;;;;15.10;12.15;;;7.80;96.20;;;;;;4865176;29;20084;-43
2021/01/29 08:39:28;;;;;;;13.75;10.35;;;7.90;95.40;;;;;;4855222;29;20041;-44
2021/01/29 08:41:56;;;;;;;14.57;11.18;;;8.00;95.00;;;;;;4877880;29;20049;-44
2021/01/29 08:44:34;;;;;;;14.05;11.85;;;8.10;94.90;;;;;;4877313;29;20037;-44
2021/01/29 08:47:35;;;;;;;15.95;10.70;;;9.20;94.60;;;;;;4877759;29;20588;-43
2021/01/29 08:50:22;;;;;;;16.05;10.90;;;9.90;91.80;;;;;;4877220;29;20405;-43
2021/01/29 08:52:56;;;;;;;13.40;9.63;;;10.60;90.80;;;;;;4877461;29;20092;-44
2021/01/29 08:55:59;;;;;;;14.90;12.23;;;10.40;88.50;;;;;;4879321;29;20047;-43
2021/01/29 08:59:04;;;;;;;14.05;11.35;;;11.10;88.30;;;;;;4914861;29;20111;-43
2021/01/29 09:01:49;;;;;;;13.52;10.00;;;12.10;88.60;;;;;;4862225;29;20144;-45
2021/01/29 09:04:23;;;;;;;10.93;8.65;;;12.60;78.00;;;;;;4895979;29;20044;-43
2021/01/29 09:06:52;;;;;;;13.18;10.15;;;12.30;79.10;;;;;;4898926;29;20036;-43
2021/01/29 09:09:27;;;;;;;12.93;9.60;;;12.00;78.90;;;;;;4898873;29;20049;-43
2021/01/29 09:11:56;;;;;;;15.18;10.55;;;11.80;80.90;;;;;;4865611;29;20044;-43
2021/01/29 09:14:42;;;;;;;11.95;9.73;;;12.80;78.30;;;;;;4862114;29;20501;-43
2021/01/29 09:17:10;;;;;;;12.18;9.45;;;12.80;76.60;;;;;;4911294;29;20140;-43
2021/01/29 09:19:40;;;;;;;12.68;10.27;;;12.80;77.30;;;;;;4917868;29;20056;-43
2021/01/29 09:22:30;;;;;;;12.05;10.15;;;12.30;79.60;;;;;;4917587;29;20052;-43
2021/01/29 09:25:16;;;;;;;16.13;12.55;;;13.00;80.40;;;;;;4917811;29;20194;-43
2021/01/29 09:28:07;;;;;;;12.23;10.98;;;13.60;75.90;;;;;;4917500;29;20147;-43
2021/01/29 09:30:45;;;;;;;12.77;11.43;;;14.60;70.90;;;;;;4917645;29;20036;-43
2021/01/29 09:33:31;;;;;;;11.98;10.68;;;14.60;71.10;;;;;;4932478;29;20043;-43
2021/01/29 09:36:13;;;;;;;13.02;11.65;;;13.90;73.60;;;;;;4936912;29;20066;-43
2021/01/29 09:38:50;;;;;;;12.80;11.50;;;14.50;71.80;;;;;;5004697;28;20037;-43
2021/01/29 09:41:24;;;;;;;13.15;11.50;;;13.80;73.70;;;;;;5013947;28;20042;-42
2021/01/29 09:44:11;;;;;;;14.98;12.07;;;14.30;74.00;;;;;;5040511;28;20099;-45
2021/01/29 09:46:39;;;;;;;12.13;10.82;;;15.20;71.30;;;;;;5035914;28;20385;-41
2021/01/29 09:49:12;;;;;;;12.50;11.30;;;15.70;68.80;;;;;;5016836;28;20049;-44
2021/01/29 09:51:59;;;;;;;13.02;11.77;;;16.30;68.20;;;;;;5012782;28;20049;-43
2021/01/29 09:54:34;;;;;;;12.25;11.13;;;;;;;;;;5015610;28;20500;-44
2021/01/29 09:57:06;;;;;;;12.70;11.50;;;18.00;94.70;;;;;;5015871;28;20044;-44
2021/01/29 09:59:59;;;;;;;11.25;10.25;;;17.70;81.40;;;;;;5015473;28;20045;-45
2021/01/29 10:02:38;;;;;;;14.15;12.82;;;17.60;59.70;;;;;;5013674;28;20042;-45
2021/01/29 10:05:24;;;;;;;11.60;10.60;;;16.30;61.00;;;;;;5015640;28;20112;-45
2021/01/29 10:08:08;;;;;;;11.68;10.45;;;16.90;62.40;;;;;;5015202;28;20030;-45
2021/01/29 10:10:48;;;;;;;9.75;8.05;;;17.30;83.70;;;;;;5015524;28;20037;-45
2021/01/29 10:13:22;;;;;;;10.73;7.95;;;16.80;78.60;;;;;;5046392;28;20109;-45
2021/01/29 10:16:29;;;;;;;8.15;7.35;;;17.30;78.70;;;;;;5055134;28;20048;-45
2021/01/29 10:19:04;;;;;;;9.23;8.25;;;16.70;63.30;;;;;;4974152;28;20101;-46
2021/01/29 10:21:58;;;;;;;10.10;7.13;;;16.30;63.90;;;;;;4941691;28;20035;-44
2021/01/29 10:24:51;;;;;;;8.75;7.47;;;15.40;65.80;;;;;;4941926;28;20431;-45
2021/01/29 10:27:22;;;;;;;8.80;6.57;;;15.10;67.40;;;;;;4973849;28;20038;-45
2021/01/29 10:29:58;;;;;;;9.30;6.10;;;15.00;69.30;;;;;;4941376;28;20030;-45
2021/01/29 10:32:30;;;;;;;7.82;6.38;;;15.10;69.20;;;;;;4974118;28;20067;-46
2021/01/29 10:35:20;;;;;;;9.95;6.65;;;15.10;69.20;;;;;;4973679;28;20129;-44
2021/01/29 10:37:48;;;;;;;8.55;6.65;;;15.10;69.90;;;;;;4941549;28;20438;-45
2021/01/29 10:40:22;;;;;;;9.35;5.70;;;15.00;70.70;;;;;;4957811;28;20093;-44
2021/01/29 10:43:05;;;;;;;6.97;5.85;;;14.80;71.40;;;;;;4973429;28;20043;-44
2021/01/29 10:45:38;;;;;;;6.68;5.45;;;14.60;72.30;;;;;;4941486;28;20078;-44
2021/01/29 10:48:13;;;;;;;8.70;6.10;;;14.30;74.00;;;;;;4935197;29;20040;-45
2021/01/29 10:50:48;;;;;;;28.42;21.08;;;14.20;73.80;;;;;;4934716;29;20412;-45
2021/01/29 10:53:20;;;;;;;10.45;7.30;;;14.10;75.10;;;;;;4934884;29;20073;-45
2021/01/29 10:56:03;;;;;;;6.97;5.68;;;14.00;76.70;;;;;;4967670;28;20173;-44
2021/01/29 10:58:28;;;;;;;;;;;13.70;77.10;;;;;;4996170;28;20363;-45
2021/01/29 11:00:57;;;;;;;8.60;6.80;;;13.70;77.20;;;;;;5012508;28;19916;-46
2021/01/29 11:03:57;;;;;;;7.60;6.28;;;13.80;79.90;;;;;;5012154;28;20077;-44
2021/01/29 11:06:36;;;;;;;7.90;6.97;;;13.90;78.80;;;;;;5012152;28;20038;-45
2021/01/29 11:09:03;;;;;;;7.45;6.18;;;14.20;77.20;;;;;;4972793;28;20043;-45
2021/01/29 11:11:32;;;;;;;8.30;6.20;;;14.50;76.20;;;;;;4972637;28;20194;-44
2021/01/29 11:14:23;;;;;;;10.68;7.93;;;14.70;75.50;;;;;;4972757;28;20414;-44
2021/01/29 11:16:53;;;;;;;43.17;26.42;;;15.30;75.20;;;;;;4967304;28;20121;-44
2021/01/29 11:19:31;;;;;;;8.88;5.72;;;15.70;73.20;;;;;;4983847;28;20089;-44
2021/01/29 11:22:00;;;;;;;25.75;17.23;;;15.20;72.60;;;;;;4991723;28;20039;-44
2021/01/29 11:25:12;;;;;;;7.25;5.25;;;15.50;71.90;;;;;;4975197;28;20042;-44
2021/01/29 11:28:21;;;;;;;28.67;17.95;;;15.30;72.20;;;;;;4981408;28;20073;-44
2021/01/29 11:31:16;;;;;;;24.05;16.75;;;15.20;73.20;;;;;;4934272;29;20051;-44
2021/01/29 11:33:48;;;;;;;17.83;12.18;;;15.00;72.60;;;;;;4934388;29;20491;-45
2021/01/29 11:36:46;;;;;;;11.90;8.70;;;14.90;73.70;;;;;;4918293;29;20531;-45
2021/01/29 11:39:23;;;;;;;9.50;7.18;;;14.80;73.90;;;;;;4919596;29;20046;-44
2021/01/29 11:42:12;;;;;;;29.88;18.85;;;14.90;74.00;;;;;;4933772;29;20042;-44
2021/01/29 11:44:46;;;;;;;34.22;24.40;;;15.30;73.90;;;;;;4934001;29;20123;-45
2021/01/29 11:47:54;;;;;;;21.50;14.13;;;15.50;73.70;;;;;;4934404;29;20054;-44
2021/01/29 11:50:45;;;;;;;9.07;7.05;;;16.10;71.60;;;;;;4933653;29;20043;-44
2021/01/29 11:53:19;;;;;;;6.70;5.38;;;16.50;70.10;;;;;;4934266;29;20070;-45
2021/01/29 11:55:49;;;;;;;7.70;6.05;;;16.50;68.60;;;;;;4933985;29;20463;-46
2021/01/29 11:58:44;;;;;;;8.80;6.68;;;16.80;67.60;;;;;;4933795;29;20040;-44
2021/01/29 12:01:28;;;;;;;24.23;17.48;;;17.00;67.00;;;;;;4933905;29;20044;-44
2021/01/29 12:04:13;;;;;;;8.63;6.03;;;17.60;67.60;;;;;;4932955;29;20113;-45
2021/01/29 12:06:51;;;;;;;8.20;5.60;;;17.40;78.10;;;;;;4954378;28;20404;-43
2021/01/29 12:09:25;;;;;;;12.98;8.20;;;17.80;83.50;;;;;;5013691;28;20095;-44
2021/01/29 12:12:14;;;;;;;8.82;6.10;;;17.40;64.50;;;;;;4994563;28;20046;-44
2021/01/29 12:14:55;;;;;;;17.27;6.00;;;17.30;64.50;;;;;;5028466;28;20425;-44
2021/01/29 12:17:28;;;;;;;18.35;11.00;;;17.50;64.90;;;;;;4988900;28;20038;-44
2021/01/29 12:20:05;;;;;;;8.88;6.28;;;17.60;64.70;;;;;;5012492;28;20030;-44
2021/01/29 12:22:50;;;;;;;7.63;5.15;;;17.30;65.40;;;;;;5013145;28;20073;-45
2021/01/29 12:25:40;;;;;;;10.63;4.93;;;17.20;64.20;;;;;;5013487;28;20108;-45
2021/01/29 12:28:32;;;;;;;63.85;11.52;;;17.20;65.60;;;;;;5013180;28;20104;-45
2021/01/29 12:31:19;;;;;;;24.02;7.30;;;17.10;66.10;;;;;;5013215;28;20034;-45
2021/01/29 12:33:54;;;;;;;10.30;6.15;;;17.10;66.40;;;;;;5013099;28;20029;-42
2021/01/29 12:36:24;;;;;;;14.20;6.68;;;17.00;64.40;;;;;;4994636;28;20038;-46
2021/01/29 12:38:59;;;;;;;18.17;8.82;;;16.80;66.70;;;;;;4947587;28;20557;-43
2021/01/29 12:41:56;;;;;;;23.05;10.77;;;16.70;68.10;;;;;;4955784;29;20606;-43
2021/01/29 12:45:00;;;;;;;25.95;9.52;;;16.80;66.70;;;;;;4899179;29;20227;-45
2021/01/29 12:47:46;;;;;;;7.88;5.28;;;16.80;67.80;;;;;;4868019;29;20054;-45
2021/01/29 12:50:48;;;;;;;18.98;11.20;;;16.70;66.20;;;;;;4899202;29;20037;-44
2021/01/29 12:53:22;;;;;;;16.73;6.95;;;16.60;67.40;;;;;;4899288;29;20041;-44
2021/01/29 12:56:30;;;;;;;14.75;7.65;;;16.50;68.40;;;;;;4898973;29;20492;-45
2021/01/29 12:59:01;;;;;;;20.75;7.18;;;16.30;68.10;;;;;;4899087;29;20040;-44
2021/01/29 13:01:33;;;;;;;20.35;9.00;;;16.40;67.60;;;;;;4899197;29;20117;-45
2021/01/29 13:04:05;;;;;;;13.40;6.38;;;16.30;67.70;;;;;;4897797;29;20071;-45
2021/01/29 13:06:41;;;;;;;;;;;16.30;67.60;;;;;;4884523;29;20100;-43
2021/01/29 13:09:18;;;;;;;26.08;13.00;;;16.20;68.70;;;;;;4906197;29;19994;-46
2021/01/29 13:11:49;;;;;;;15.23;8.10;;;16.10;68.60;;;;;;4923401;29;20090;-46
2021/01/29 13:14:39;;;;;;;11.15;6.88;;;16.10;68.40;;;;;;4955893;29;20181;-45
2021/01/29 13:17:29;;;;;;;20.38;7.35;;;16.10;70.10;;;;;;4940226;28;20043;-46
2021/01/29 13:20:07;;;;;;;9.35;6.53;;;16.10;70.20;;;;;;4981588;28;20129;-45
2021/01/29 13:22:49;;;;;;;11.50;6.68;;;16.00;69.30;;;;;;5016472;28;20047;-47
2021/01/29 13:25:15;;;;;;;17.35;7.20;;;15.80;69.20;;;;;;5013976;28;20045;-48
2021/01/29 13:27:47;;;;;;;21.02;9.13;;;15.90;69.70;;;;;;5016250;28;20033;-47
2021/01/29 13:30:42;;;;;;;15.35;7.45;;;15.90;72.30;;;;;;5016276;28;20045;-47
2021/01/29 13:33:23;;;;;;;15.73;9.20;;;15.80;69.80;;;;;;4974229;28;20043;-47
2021/01/29 13:36:02;;;;;;;17.55;10.52;;;15.80;71.90;;;;;;4947763;28;20034;-47
2021/01/29 13:38:38;;;;;;;17.73;9.80;;;15.80;72.20;;;;;;4991308;28;20042;-48
2021/01/29 13:41:21;;;;;;;17.05;10.60;;;15.60;72.90;;;;;;4993768;28;20041;-47
2021/01/29 13:43:46;;;;;;;20.13;13.55;;;15.60;71.60;;;;;;4993970;28;20136;-48
2021/01/29 13:46:26;;;;;;;34.40;22.85;;;15.60;69.40;;;;;;4984943;28;20116;-48
2021/01/29 13:49:33;;;;;;;41.90;29.10;;;15.60;69.20;;;;;;5002534;28;20514;-47